sensor_id;sensor_type;location;lat;lon;timestamp;temperature;humidity
18297;DHT22;18066;52.106;5.534;2024-02-28T00:00:07;4.70;99.90
18297;DHT22;18066;52.106;5.534;2024-02-28T00:02:36;4.50;99.90
18297;DHT22;18066;52.106;5.534;2024-02-28T00:05:03;5.60;99.90
18297;DHT22;18066;52.106;5.534;2024-02-28T00:07:31;5.10;99.90
18297;DHT22;18066;52.106;5.534;2024-02-28T00:09:58;5.70;99.90
18297;DHT22;18066;52.106;5.534;2024-02-28T00:12:25;5.10;99.90
18297;DHT22;18066;52.106;5.534;2024-02-28T00:14:52;5.10;99.90
18297;DHT22;18066;52.106;5.534;2024-02-28T00:17:19;5.60;99.90
18297;DHT22;18066;52.106;5.534;2024-02-28T00:19:46;5.00;99.90
18297;DHT22;18066;52.106;5.534;2024-02-28T00:22:13;5.70;99.90
18297;DHT22;18066;52.106;5.534;2024-02-28T00:24:41;5.90;99.90
18297;DHT22;18066;52.106;5.534;2024-02-28T00:27:08;5.70;99.90
18297;DHT22;18066;52.106;5.534;2024-02-28T00:29:35;5.10;99.90
18297;DHT22;18066;52.106;5.534;2024-02-28T00:32:02;5.70;99.90
18297;DHT22;18066;52.106;5.534;2024-02-28T00:34:29;5.10;99.90
18297;DHT22;18066;52.106;5.534;2024-02-28T00:36:56;4.40;99.90
18297;DHT22;18066;52.106;5.534;2024-02-28T00:39:23;5.30;99.90
18297;DHT22;18066;52.106;5.534;2024-02-28T00:41:51;4.90;99.90
18297;DHT22;18066;52.106;5.534;2024-02-28T00:44:18;5.00;99.90
18297;DHT22;18066;52.106;5.534;2024-02-28T00:46:45;5.40;99.90
18297;DHT22;18066;52.106;5.534;2024-02-28T00:49:12;5.00;99.90
18297;DHT22;18066;52.106;5.534;2024-02-28T00:51:39;4.90;99.90
18297;DHT22;18066;52.106;5.534;2024-02-28T00:54:05;5.30;99.90
18297;DHT22;18066;52.106;5.534;2024-02-28T00:56:33;5.20;99.90
18297;DHT22;18066;52.106;5.534;2024-02-28T00:59:02;5.00;99.90
18297;DHT22;18066;52.106;5.534;2024-02-28T01:01:29;4.80;99.90
18297;DHT22;18066;52.106;5.534;2024-02-28T01:03:56;4.80;99.90
18297;DHT22;18066;52.106;5.534;2024-02-28T01:06:23;4.70;99.90
18297;DHT22;18066;52.106;5.534;2024-02-28T01:08:49;5.30;99.90
18297;DHT22;18066;52.106;5.534;2024-02-28T01:11:16;4.70;99.90
18297;DHT22;18066;52.106;5.534;2024-02-28T01:13:43;4.20;99.90
18297;DHT22;18066;52.106;5.534;2024-02-28T01:16:12;4.90;99.90
18297;DHT22;18066;52.106;5.534;2024-02-28T01:18:38;4.60;99.90
18297;DHT22;18066;52.106;5.534;2024-02-28T01:21:05;4.60;99.90
18297;DHT22;18066;52.106;5.534;2024-02-28T01:23:32;5.20;99.90
18297;DHT22;18066;52.106;5.534;2024-02-28T01:25:59;4.60;99.90
18297;DHT22;18066;52.106;5.534;2024-02-28T01:28:28;5.10;99.90
18297;DHT22;18066;52.106;5.534;2024-02-28T01:30:55;5.00;99.90
18297;DHT22;18066;52.106;5.534;2024-02-28T01:33:24;4.80;99.90
18297;DHT22;18066;52.106;5.534;2024-02-28T01:35:51;4.80;99.90
18297;DHT22;18066;52.106;5.534;2024-02-28T01:38:18;4.70;99.90
18297;DHT22;18066;52.106;5.534;2024-02-28T01:40:45;5.30;99.90
18297;DHT22;18066;52.106;5.534;2024-02-28T01:43:12;4.70;99.90
18297;DHT22;18066;52.106;5.534;2024-02-28T01:45:39;5.30;99.90
18297;DHT22;18066;52.106;5.534;2024-02-28T01:48:07;4.50;99.90
18297;DHT22;18066;52.106;5.534;2024-02-28T01:50:37;4.60;99.90
18297;DHT22;18066;52.106;5.534;2024-02-28T01:53:06;4.60;99.90
18297;DHT22;18066;52.106;5.534;2024-02-28T01:55:34;4.50;99.90
18297;DHT22;18066;52.106;5.534;2024-02-28T01:58:01;4.80;99.90
18297;DHT22;18066;52.106;5.534;2024-02-28T02:00:32;5.00;99.90
18297;DHT22;18066;52.106;5.534;2024-02-28T02:03:00;4.50;99.90
18297;DHT22;18066;52.106;5.534;2024-02-28T02:05:27;4.40;99.90
18297;DHT22;18066;52.106;5.534;2024-02-28T02:07:57;4.40;99.90
18297;DHT22;18066;52.106;5.534;2024-02-28T02:10:24;4.30;99.90
18297;DHT22;18066;52.106;5.534;2024-02-28T02:12:51;4.50;99.90
18297;DHT22;18066;52.106;5.534;2024-02-28T02:15:18;4.50;99.90
18297;DHT22;18066;52.106;5.534;2024-02-28T02:17:45;4.40;99.90
18297;DHT22;18066;52.106;5.534;2024-02-28T02:20:14;4.30;99.90
18297;DHT22;18066;52.106;5.534;2024-02-28T02:22:43;4.40;99.90
18297;DHT22;18066;52.106;5.534;2024-02-28T02:25:10;4.30;99.90
18297;DHT22;18066;52.106;5.534;2024-02-28T02:27:37;4.00;99.90
18297;DHT22;18066;52.106;5.534;2024-02-28T02:30:05;4.40;99.90
18297;DHT22;18066;52.106;5.534;2024-02-28T02:32:32;4.50;99.90
18297;DHT22;18066;52.106;5.534;2024-02-28T02:34:58;4.50;99.90
18297;DHT22;18066;52.106;5.534;2024-02-28T02:37:26;4.40;99.90
18297;DHT22;18066;52.106;5.534;2024-02-28T02:39:54;4.40;99.90
18297;DHT22;18066;52.106;5.534;2024-02-28T02:42:21;5.00;99.90
18297;DHT22;18066;52.106;5.534;2024-02-28T02:44:48;4.40;99.90
18297;DHT22;18066;52.106;5.534;2024-02-28T02:47:15;4.40;99.90
18297;DHT22;18066;52.106;5.534;2024-02-28T02:49:42;4.90;99.90
18297;DHT22;18066;52.106;5.534;2024-02-28T02:52:08;5.10;99.90
18297;DHT22;18066;52.106;5.534;2024-02-28T02:54:36;5.20;99.90
18297;DHT22;18066;52.106;5.534;2024-02-28T02:57:05;4.70;99.90
18297;DHT22;18066;52.106;5.534;2024-02-28T02:59:31;4.50;99.90
18297;DHT22;18066;52.106;5.534;2024-02-28T03:01:58;5.10;99.90
18297;DHT22;18066;52.106;5.534;2024-02-28T03:04:25;4.30;99.90
18297;DHT22;18066;52.106;5.534;2024-02-28T03:06:52;4.60;99.90
18297;DHT22;18066;52.106;5.534;2024-02-28T03:09:19;4.50;99.90
18297;DHT22;18066;52.106;5.534;2024-02-28T03:11:46;4.40;99.90
18297;DHT22;18066;52.106;5.534;2024-02-28T03:14:14;5.20;99.90
18297;DHT22;18066;52.106;5.534;2024-02-28T03:16:41;5.10;99.90
18297;DHT22;18066;52.106;5.534;2024-02-28T03:19:09;4.90;99.90
18297;DHT22;18066;52.106;5.534;2024-02-28T03:21:36;4.90;99.90
18297;DHT22;18066;52.106;5.534;2024-02-28T03:24:03;4.40;99.90
18297;DHT22;18066;52.106;5.534;2024-02-28T03:26:30;4.30;99.90
18297;DHT22;18066;52.106;5.534;2024-02-28T03:28:57;4.20;99.90
18297;DHT22;18066;52.106;5.534;2024-02-28T03:31:26;4.20;99.90
18297;DHT22;18066;52.106;5.534;2024-02-28T03:33:53;4.80;99.90
18297;DHT22;18066;52.106;5.534;2024-02-28T03:36:20;4.30;99.90
18297;DHT22;18066;52.106;5.534;2024-02-28T03:38:46;4.50;99.90
18297;DHT22;18066;52.106;5.534;2024-02-28T03:41:13;4.30;99.90
18297;DHT22;18066;52.106;5.534;2024-02-28T03:43:40;4.30;99.90
18297;DHT22;18066;52.106;5.534;2024-02-28T03:46:07;4.20;99.90
18297;DHT22;18066;52.106;5.534;2024-02-28T03:48:36;4.90;99.90
18297;DHT22;18066;52.106;5.534;2024-02-28T03:51:03;4.30;99.90
18297;DHT22;18066;52.106;5.534;2024-02-28T03:53:30;4.40;99.90
18297;DHT22;18066;52.106;5.534;2024-02-28T03:55:57;4.70;99.90
18297;DHT22;18066;52.106;5.534;2024-02-28T03:58:24;5.00;99.90
18297;DHT22;18066;52.106;5.534;2024-02-28T04:00:51;4.40;99.90
18297;DHT22;18066;52.106;5.534;2024-02-28T04:03:18;4.50;99.90
18297;DHT22;18066;52.106;5.534;2024-02-28T04:05:46;4.50;99.90
18297;DHT22;18066;52.106;5.534;2024-02-28T04:08:13;4.50;99.90
18297;DHT22;18066;52.106;5.534;2024-02-28T04:10:40;5.10;99.90
18297;DHT22;18066;52.106;5.534;2024-02-28T04:13:07;4.50;99.90
18297;DHT22;18066;52.106;5.534;2024-02-28T04:15:34;4.50;99.90
18297;DHT22;18066;52.106;5.534;2024-02-28T04:18:03;5.10;99.90
18297;DHT22;18066;52.106;5.534;2024-02-28T04:20:30;4.60;99.90
18297;DHT22;18066;52.106;5.534;2024-02-28T04:22:58;4.60;99.90
18297;DHT22;18066;52.106;5.534;2024-02-28T04:25:25;5.20;99.90
18297;DHT22;18066;52.106;5.534;2024-02-28T04:27:52;4.60;99.90
18297;DHT22;18066;52.106;5.534;2024-02-28T04:30:19;4.60;99.90
18297;DHT22;18066;52.106;5.534;2024-02-28T04:32:46;5.30;99.90
18297;DHT22;18066;52.106;5.534;2024-02-28T04:35:13;4.90;99.90
18297;DHT22;18066;52.106;5.534;2024-02-28T04:37:41;4.50;99.90
18297;DHT22;18066;52.106;5.534;2024-02-28T04:40:10;5.20;99.90
18297;DHT22;18066;52.106;5.534;2024-02-28T04:42:38;4.70;99.90
18297;DHT22;18066;52.106;5.534;2024-02-28T04:45:06;4.50;99.90
18297;DHT22;18066;52.106;5.534;2024-02-28T04:47:33;4.70;99.90
18297;DHT22;18066;52.106;5.534;2024-02-28T04:50:00;4.60;99.90
18297;DHT22;18066;52.106;5.534;2024-02-28T04:52:27;5.20;99.90
18297;DHT22;18066;52.106;5.534;2024-02-28T04:54:54;4.70;99.90
18297;DHT22;18066;52.106;5.534;2024-02-28T04:57:22;4.90;99.90
18297;DHT22;18066;52.106;5.534;2024-02-28T04:59:49;4.60;99.90
18297;DHT22;18066;52.106;5.534;2024-02-28T05:02:16;5.10;99.90
18297;DHT22;18066;52.106;5.534;2024-02-28T05:04:43;5.20;99.90
18297;DHT22;18066;52.106;5.534;2024-02-28T05:07:10;5.30;99.90
18297;DHT22;18066;52.106;5.534;2024-02-28T05:09:37;4.60;99.90
18297;DHT22;18066;52.106;5.534;2024-02-28T05:12:04;5.30;99.90
18297;DHT22;18066;52.106;5.534;2024-02-28T05:14:32;4.50;99.90
18297;DHT22;18066;52.106;5.534;2024-02-28T05:16:59;5.10;99.90
18297;DHT22;18066;52.106;5.534;2024-02-28T05:19:26;4.60;99.90
18297;DHT22;18066;52.106;5.534;2024-02-28T05:21:52;4.50;99.90
18297;DHT22;18066;52.106;5.534;2024-02-28T05:24:19;4.50;99.90
18297;DHT22;18066;52.106;5.534;2024-02-28T05:26:46;4.50;99.90
18297;DHT22;18066;52.106;5.534;2024-02-28T05:29:13;4.50;99.90
18297;DHT22;18066;52.106;5.534;2024-02-28T05:31:41;5.20;99.90
18297;DHT22;18066;52.106;5.534;2024-02-28T05:34:08;5.30;99.90
18297;DHT22;18066;52.106;5.534;2024-02-28T05:36:35;5.30;99.90
18297;DHT22;18066;52.106;5.534;2024-02-28T05:39:02;4.90;99.90
18297;DHT22;18066;52.106;5.534;2024-02-28T05:41:31;4.80;99.90
18297;DHT22;18066;52.106;5.534;2024-02-28T05:43:58;5.40;99.90
18297;DHT22;18066;52.106;5.534;2024-02-28T05:46:24;5.00;99.90
18297;DHT22;18066;52.106;5.534;2024-02-28T05:48:53;5.60;99.90
18297;DHT22;18066;52.106;5.534;2024-02-28T05:51:20;5.70;99.90
18297;DHT22;18066;52.106;5.534;2024-02-28T05:53:48;5.30;99.90
18297;DHT22;18066;52.106;5.534;2024-02-28T05:56:15;5.30;99.90
18297;DHT22;18066;52.106;5.534;2024-02-28T05:58:46;4.90;99.90
18297;DHT22;18066;52.106;5.534;2024-02-28T06:01:15;5.80;99.90
18297;DHT22;18066;52.106;5.534;2024-02-28T06:03:42;5.30;99.90
18297;DHT22;18066;52.106;5.534;2024-02-28T06:06:13;5.80;99.90
18297;DHT22;18066;52.106;5.534;2024-02-28T06:08:40;5.40;99.90
18297;DHT22;18066;52.106;5.534;2024-02-28T06:11:08;5.80;99.90
18297;DHT22;18066;52.106;5.534;2024-02-28T06:13:35;5.60;99.90
18297;DHT22;18066;52.106;5.534;2024-02-28T06:16:02;5.50;99.90
18297;DHT22;18066;52.106;5.534;2024-02-28T06:18:29;5.30;99.90
18297;DHT22;18066;52.106;5.534;2024-02-28T06:20:59;5.00;99.90
18297;DHT22;18066;52.106;5.534;2024-02-28T06:23:27;5.20;99.90
18297;DHT22;18066;52.106;5.534;2024-02-28T06:25:55;5.10;99.90
18297;DHT22;18066;52.106;5.534;2024-02-28T06:28:22;5.80;99.90
18297;DHT22;18066;52.106;5.534;2024-02-28T06:30:49;5.20;99.90
18297;DHT22;18066;52.106;5.534;2024-02-28T06:33:16;5.20;99.90
18297;DHT22;18066;52.106;5.534;2024-02-28T06:35:44;5.80;99.90
18297;DHT22;18066;52.106;5.534;2024-02-28T06:38:11;4.60;99.90
18297;DHT22;18066;52.106;5.534;2024-02-28T06:40:39;5.60;99.90
18297;DHT22;18066;52.106;5.534;2024-02-28T06:43:07;5.50;99.90
18297;DHT22;18066;52.106;5.534;2024-02-28T06:45:33;5.80;99.90
18297;DHT22;18066;52.106;5.534;2024-02-28T06:48:00;5.10;99.90
18297;DHT22;18066;52.106;5.534;2024-02-28T06:50:31;5.50;99.90
18297;DHT22;18066;52.106;5.534;2024-02-28T06:52:59;5.10;99.90
18297;DHT22;18066;52.106;5.534;2024-02-28T06:55:26;5.10;99.90
18297;DHT22;18066;52.106;5.534;2024-02-28T06:57:57;5.00;99.90
18297;DHT22;18066;52.106;5.534;2024-02-28T07:00:30;5.50;99.90
18297;DHT22;18066;52.106;5.534;2024-02-28T07:03:13;5.20;99.90
18297;DHT22;18066;52.106;5.534;2024-02-28T07:05:43;5.60;99.90
18297;DHT22;18066;52.106;5.534;2024-02-28T07:08:17;5.30;99.90
18297;DHT22;18066;52.106;5.534;2024-02-28T07:10:49;5.60;99.90
18297;DHT22;18066;52.106;5.534;2024-02-28T07:13:20;5.80;99.90
18297;DHT22;18066;52.106;5.534;2024-02-28T07:15:49;5.50;99.90
18297;DHT22;18066;52.106;5.534;2024-02-28T07:18:20;5.40;99.90
18297;DHT22;18066;52.106;5.534;2024-02-28T07:20:48;5.80;99.90
18297;DHT22;18066;52.106;5.534;2024-02-28T07:23:17;5.40;99.90
18297;DHT22;18066;52.106;5.534;2024-02-28T07:25:44;5.50;99.90
18297;DHT22;18066;52.106;5.534;2024-02-28T07:28:12;4.60;99.90
18297;DHT22;18066;52.106;5.534;2024-02-28T07:30:47;5.40;99.90
18297;DHT22;18066;52.106;5.534;2024-02-28T07:33:14;5.30;99.90
18297;DHT22;18066;52.106;5.534;2024-02-28T07:35:44;5.50;99.90
18297;DHT22;18066;52.106;5.534;2024-02-28T07:38:12;5.70;99.90
18297;DHT22;18066;52.106;5.534;2024-02-28T07:40:49;5.50;99.90
18297;DHT22;18066;52.106;5.534;2024-02-28T07:43:18;5.40;99.90
18297;DHT22;18066;52.106;5.534;2024-02-28T07:45:50;5.70;99.90
18297;DHT22;18066;52.106;5.534;2024-02-28T07:48:17;5.50;99.90
18297;DHT22;18066;52.106;5.534;2024-02-28T07:50:44;5.80;99.90
18297;DHT22;18066;52.106;5.534;2024-02-28T07:53:14;6.00;99.90
18297;DHT22;18066;52.106;5.534;2024-02-28T07:55:42;5.50;99.90
18297;DHT22;18066;52.106;5.534;2024-02-28T07:58:11;6.20;99.90
18297;DHT22;18066;52.106;5.534;2024-02-28T08:00:39;6.10;99.90
18297;DHT22;18066;52.106;5.534;2024-02-28T08:06:42;6.70;99.90
18297;DHT22;18066;52.106;5.534;2024-02-28T08:09:12;5.70;99.90
18297;DHT22;18066;52.106;5.534;2024-02-28T08:11:42;5.70;99.90
18297;DHT22;18066;52.106;5.534;2024-02-28T08:14:09;5.70;99.90
18297;DHT22;18066;52.106;5.534;2024-02-28T08:29:17;5.90;99.90
18297;DHT22;18066;52.106;5.534;2024-02-28T08:31:44;6.60;99.90
18297;DHT22;18066;52.106;5.534;2024-02-28T08:34:11;6.60;99.90
18297;DHT22;18066;52.106;5.534;2024-02-28T08:36:38;5.70;99.90
18297;DHT22;18066;52.106;5.534;2024-02-28T08:39:05;6.30;99.90
18297;DHT22;18066;52.106;5.534;2024-02-28T08:41:34;6.60;99.90
18297;DHT22;18066;52.106;5.534;2024-02-28T08:44:01;6.10;99.90
18297;DHT22;18066;52.106;5.534;2024-02-28T08:46:30;6.20;99.90
18297;DHT22;18066;52.106;5.534;2024-02-28T08:48:57;6.90;99.90
18297;DHT22;18066;52.106;5.534;2024-02-28T08:51:24;6.80;99.90
18297;DHT22;18066;52.106;5.534;2024-02-28T08:53:50;6.50;99.90
18297;DHT22;18066;52.106;5.534;2024-02-28T08:56:19;6.50;99.90
18297;DHT22;18066;52.106;5.534;2024-02-28T08:58:46;6.50;99.90
18297;DHT22;18066;52.106;5.534;2024-02-28T09:01:16;6.60;99.90
18297;DHT22;18066;52.106;5.534;2024-02-28T09:03:44;6.60;99.90
18297;DHT22;18066;52.106;5.534;2024-02-28T09:06:11;6.40;99.90
18297;DHT22;18066;52.106;5.534;2024-02-28T09:08:38;6.30;99.90
18297;DHT22;18066;52.106;5.534;2024-02-28T09:11:05;6.30;99.90
18297;DHT22;18066;52.106;5.534;2024-02-28T09:13:32;6.80;99.90
18297;DHT22;18066;52.106;5.534;2024-02-28T09:16:01;6.40;99.90
18297;DHT22;18066;52.106;5.534;2024-02-28T09:18:28;6.50;99.90
18297;DHT22;18066;52.106;5.534;2024-02-28T09:20:56;6.80;99.90
18297;DHT22;18066;52.106;5.534;2024-02-28T09:23:23;6.90;99.90
18297;DHT22;18066;52.106;5.534;2024-02-28T09:25:50;6.70;99.90
18297;DHT22;18066;52.106;5.534;2024-02-28T09:28:17;6.70;99.90
18297;DHT22;18066;52.106;5.534;2024-02-28T09:30:44;7.40;99.90
18297;DHT22;18066;52.106;5.534;2024-02-28T09:33:13;6.90;99.90
18297;DHT22;18066;52.106;5.534;2024-02-28T09:35:40;7.00;99.90
18297;DHT22;18066;52.106;5.534;2024-02-28T09:38:09;7.80;99.90
18297;DHT22;18066;52.106;5.534;2024-02-28T09:40:35;7.80;99.90
18297;DHT22;18066;52.106;5.534;2024-02-28T09:43:03;7.10;99.90
18297;DHT22;18066;52.106;5.534;2024-02-28T09:45:30;7.20;99.90
18297;DHT22;18066;52.106;5.534;2024-02-28T09:47:58;7.50;99.90
18297;DHT22;18066;52.106;5.534;2024-02-28T09:50:26;7.40;99.90
18297;DHT22;18066;52.106;5.534;2024-02-28T09:52:53;7.40;99.90
18297;DHT22;18066;52.106;5.534;2024-02-28T09:55:20;7.00;99.90
18297;DHT22;18066;52.106;5.534;2024-02-28T09:57:48;7.90;99.90
18297;DHT22;18066;52.106;5.534;2024-02-28T10:00:19;8.00;99.90
18297;DHT22;18066;52.106;5.534;2024-02-28T10:02:47;7.60;99.90
18297;DHT22;18066;52.106;5.534;2024-02-28T10:05:15;7.70;99.90
18297;DHT22;18066;52.106;5.534;2024-02-28T10:07:44;7.70;99.90
18297;DHT22;18066;52.106;5.534;2024-02-28T10:10:11;7.80;99.90
18297;DHT22;18066;52.106;5.534;2024-02-28T10:12:42;7.90;99.90
18297;DHT22;18066;52.106;5.534;2024-02-28T10:15:10;8.00;99.90
18297;DHT22;18066;52.106;5.534;2024-02-28T10:17:37;8.10;99.90
18297;DHT22;18066;52.106;5.534;2024-02-28T10:20:05;8.70;99.90
18297;DHT22;18066;52.106;5.534;2024-02-28T10:22:35;8.20;99.90
18297;DHT22;18066;52.106;5.534;2024-02-28T10:25:02;8.20;99.90
18297;DHT22;18066;52.106;5.534;2024-02-28T10:27:32;8.20;99.90
18297;DHT22;18066;52.106;5.534;2024-02-28T10:30:00;8.90;99.90
18297;DHT22;18066;52.106;5.534;2024-02-28T10:32:30;8.30;99.90
18297;DHT22;18066;52.106;5.534;2024-02-28T10:34:58;8.60;99.90
18297;DHT22;18066;52.106;5.534;2024-02-28T10:37:27;8.50;99.90
18297;DHT22;18066;52.106;5.534;2024-02-28T10:39:57;8.60;99.90
18297;DHT22;18066;52.106;5.534;2024-02-28T10:42:29;8.60;99.90
18297;DHT22;18066;52.106;5.534;2024-02-28T10:44:58;8.70;99.90
18297;DHT22;18066;52.106;5.534;2024-02-28T10:47:27;8.90;99.90
18297;DHT22;18066;52.106;5.534;2024-02-28T10:50:10;9.00;99.90
18297;DHT22;18066;52.106;5.534;2024-02-28T10:52:44;9.00;99.90
18297;DHT22;18066;52.106;5.534;2024-02-28T10:55:18;8.90;99.90
18297;DHT22;18066;52.106;5.534;2024-02-28T10:57:52;9.00;99.90
18297;DHT22;18066;52.106;5.534;2024-02-28T11:00:21;8.70;99.90
18297;DHT22;18066;52.106;5.534;2024-02-28T11:02:50;8.50;99.90
18297;DHT22;18066;52.106;5.534;2024-02-28T11:05:17;8.60;99.90
18297;DHT22;18066;52.106;5.534;2024-02-28T11:07:51;8.60;99.90
18297;DHT22;18066;52.106;5.534;2024-02-28T11:10:18;8.60;99.90
18297;DHT22;18066;52.106;5.534;2024-02-28T11:12:54;8.90;99.90
18297;DHT22;18066;52.106;5.534;2024-02-28T11:15:25;9.50;99.90
18297;DHT22;18066;52.106;5.534;2024-02-28T11:17:54;9.20;99.90
18297;DHT22;18066;52.106;5.534;2024-02-28T11:20:21;9.40;99.90
18297;DHT22;18066;52.106;5.534;2024-02-28T11:22:48;9.10;99.90
18297;DHT22;18066;52.106;5.534;2024-02-28T11:25:27;9.20;99.90
18297;DHT22;18066;52.106;5.534;2024-02-28T11:27:54;8.80;99.90
18297;DHT22;18066;52.106;5.534;2024-02-28T11:30:25;9.30;99.90
18297;DHT22;18066;52.106;5.534;2024-02-28T11:33:02;9.50;99.90
18297;DHT22;18066;52.106;5.534;2024-02-28T11:35:33;9.60;99.90
18297;DHT22;18066;52.106;5.534;2024-02-28T11:38:12;9.40;99.90
18297;DHT22;18066;52.106;5.534;2024-02-28T11:40:50;9.40;99.90
18297;DHT22;18066;52.106;5.534;2024-02-28T11:43:19;9.50;99.90
18297;DHT22;18066;52.106;5.534;2024-02-28T11:45:49;9.90;99.90
18297;DHT22;18066;52.106;5.534;2024-02-28T11:48:39;9.60;99.90
18297;DHT22;18066;52.106;5.534;2024-02-28T11:51:10;10.00;99.90
18297;DHT22;18066;52.106;5.534;2024-02-28T11:53:37;9.70;99.90
18297;DHT22;18066;52.106;5.534;2024-02-28T11:56:08;9.60;99.90
18297;DHT22;18066;52.106;5.534;2024-02-28T11:58:51;9.80;99.90
18297;DHT22;18066;52.106;5.534;2024-02-28T12:01:36;9.80;99.90
18297;DHT22;18066;52.106;5.534;2024-02-28T12:04:05;9.90;99.90
18297;DHT22;18066;52.106;5.534;2024-02-28T12:06:33;9.40;99.90
18297;DHT22;18066;52.106;5.534;2024-02-28T12:09:07;9.60;99.90
18297;DHT22;18066;52.106;5.534;2024-02-28T12:11:43;9.50;99.90
18297;DHT22;18066;52.106;5.534;2024-02-28T12:14:10;9.50;99.90
18297;DHT22;18066;52.106;5.534;2024-02-28T12:16:39;9.80;99.90
18297;DHT22;18066;52.106;5.534;2024-02-28T12:19:08;10.00;99.90
18297;DHT22;18066;52.106;5.534;2024-02-28T12:21:36;10.10;99.90
18297;DHT22;18066;52.106;5.534;2024-02-28T12:24:04;10.10;99.90
18297;DHT22;18066;52.106;5.534;2024-02-28T12:26:31;10.20;99.90
18297;DHT22;18066;52.106;5.534;2024-02-28T12:28:58;10.30;99.90
18297;DHT22;18066;52.106;5.534;2024-02-28T12:31:25;10.20;99.90
18297;DHT22;18066;52.106;5.534;2024-02-28T12:33:53;10.10;99.90
18297;DHT22;18066;52.106;5.534;2024-02-28T12:36:22;10.20;99.90
18297;DHT22;18066;52.106;5.534;2024-02-28T12:38:50;10.00;99.90
18297;DHT22;18066;52.106;5.534;2024-02-28T12:41:17;10.00;99.90
18297;DHT22;18066;52.106;5.534;2024-02-28T12:43:44;9.90;99.90
18297;DHT22;18066;52.106;5.534;2024-02-28T12:46:14;9.90;99.90
18297;DHT22;18066;52.106;5.534;2024-02-28T12:48:41;9.90;99.90
18297;DHT22;18066;52.106;5.534;2024-02-28T12:51:11;10.10;99.90
18297;DHT22;18066;52.106;5.534;2024-02-28T12:53:41;10.40;99.90
18297;DHT22;18066;52.106;5.534;2024-02-28T12:56:08;10.40;99.90
18297;DHT22;18066;52.106;5.534;2024-02-28T12:58:35;10.40;99.90
18297;DHT22;18066;52.106;5.534;2024-02-28T13:01:02;10.50;99.90
18297;DHT22;18066;52.106;5.534;2024-02-28T13:03:30;10.40;99.90
18297;DHT22;18066;52.106;5.534;2024-02-28T13:05:57;10.30;99.90
18297;DHT22;18066;52.106;5.534;2024-02-28T13:08:24;10.30;99.90
18297;DHT22;18066;52.106;5.534;2024-02-28T13:10:52;10.60;99.90
18297;DHT22;18066;52.106;5.534;2024-02-28T13:13:19;10.30;99.90
18297;DHT22;18066;52.106;5.534;2024-02-28T13:15:46;10.20;99.90
18297;DHT22;18066;52.106;5.534;2024-02-28T13:18:14;10.20;99.90
18297;DHT22;18066;52.106;5.534;2024-02-28T13:20:41;10.10;99.90
18297;DHT22;18066;52.106;5.534;2024-02-28T13:23:08;10.40;99.90
18297;DHT22;18066;52.106;5.534;2024-02-28T13:25:35;10.00;99.90
18297;DHT22;18066;52.106;5.534;2024-02-28T13:28:04;9.90;99.90
18297;DHT22;18066;52.106;5.534;2024-02-28T13:31:05;9.90;99.90
18297;DHT22;18066;52.106;5.534;2024-02-28T13:36:30;10.00;99.90
18297;DHT22;18066;52.106;5.534;2024-02-28T13:44:31;10.60;99.90
18297;DHT22;18066;52.106;5.534;2024-02-28T13:50:47;11.00;99.90
18297;DHT22;18066;52.106;5.534;2024-02-28T13:56:47;11.20;99.90
18297;DHT22;18066;52.106;5.534;2024-02-28T14:06:44;10.40;99.90
18297;DHT22;18066;52.106;5.534;2024-02-28T14:09:48;10.40;99.90
18297;DHT22;18066;52.106;5.534;2024-02-28T14:19:42;10.50;99.90
18297;DHT22;18066;52.106;5.534;2024-02-28T14:26:05;10.20;99.90
18297;DHT22;18066;52.106;5.534;2024-02-28T14:31:59;10.00;99.90
18297;DHT22;18066;52.106;5.534;2024-02-28T14:34:37;9.70;99.90
18297;DHT22;18066;52.106;5.534;2024-02-28T14:40:31;9.60;99.90
18297;DHT22;18066;52.106;5.534;2024-02-28T14:43:15;10.20;99.90
18297;DHT22;18066;52.106;5.534;2024-02-28T14:45:57;10.20;99.90
18297;DHT22;18066;52.106;5.534;2024-02-28T14:48:56;10.00;99.90
18297;DHT22;18066;52.106;5.534;2024-02-28T14:51:53;10.10;99.90
18297;DHT22;18066;52.106;5.534;2024-02-28T14:54:41;10.00;99.90
18297;DHT22;18066;52.106;5.534;2024-02-28T15:01:01;9.70;99.90
18297;DHT22;18066;52.106;5.534;2024-02-28T15:03:53;10.00;99.90
18297;DHT22;18066;52.106;5.534;2024-02-28T15:06:20;10.50;99.90
18297;DHT22;18066;52.106;5.534;2024-02-28T15:09:07;10.00;99.90
18297;DHT22;18066;52.106;5.534;2024-02-28T15:12:16;9.90;99.90
18297;DHT22;18066;52.106;5.534;2024-02-28T15:21:56;9.80;99.90
18297;DHT22;18066;52.106;5.534;2024-02-28T15:24:48;9.90;99.90
18297;DHT22;18066;52.106;5.534;2024-02-28T15:27:47;9.60;99.90
18297;DHT22;18066;52.106;5.534;2024-02-28T15:30:40;9.50;99.90
18297;DHT22;18066;52.106;5.534;2024-02-28T15:33:34;9.40;99.90
18297;DHT22;18066;52.106;5.534;2024-02-28T15:36:48;9.60;99.90
18297;DHT22;18066;52.106;5.534;2024-02-28T15:39:12;9.90;99.90
18297;DHT22;18066;52.106;5.534;2024-02-28T15:41:40;9.80;99.90
18297;DHT22;18066;52.106;5.534;2024-02-28T15:47:51;9.40;99.90
18297;DHT22;18066;52.106;5.534;2024-02-28T15:50:26;9.50;99.90
18297;DHT22;18066;52.106;5.534;2024-02-28T15:53:12;9.80;99.90
18297;DHT22;18066;52.106;5.534;2024-02-28T15:56:16;9.60;99.90
18297;DHT22;18066;52.106;5.534;2024-02-28T15:58:57;9.50;99.90
18297;DHT22;18066;52.106;5.534;2024-02-28T16:02:01;9.70;99.90
18297;DHT22;18066;52.106;5.534;2024-02-28T16:04:58;9.60;99.90
18297;DHT22;18066;52.106;5.534;2024-02-28T16:14:54;9.50;99.90
18297;DHT22;18066;52.106;5.534;2024-02-28T16:17:51;9.40;99.90
18297;DHT22;18066;52.106;5.534;2024-02-28T16:21:19;9.70;99.90
18297;DHT22;18066;52.106;5.534;2024-02-28T16:24:02;9.30;99.90
18297;DHT22;18066;52.106;5.534;2024-02-28T16:33:35;9.70;99.90
18297;DHT22;18066;52.106;5.534;2024-02-28T16:49:11;9.10;99.90
18297;DHT22;18066;52.106;5.534;2024-02-28T16:51:52;9.10;99.90
18297;DHT22;18066;52.106;5.534;2024-02-28T17:04:35;9.00;99.90
18297;DHT22;18066;52.106;5.534;2024-02-28T17:11:42;9.00;99.90
18297;DHT22;18066;52.106;5.534;2024-02-28T17:13:57;8.90;99.90
18297;DHT22;18066;52.106;5.534;2024-02-28T17:17:00;8.80;99.90
18297;DHT22;18066;52.106;5.534;2024-02-28T17:19:56;8.90;99.90
18297;DHT22;18066;52.106;5.534;2024-02-28T18:46:09;9.00;99.90
18297;DHT22;18066;52.106;5.534;2024-02-28T18:58:27;9.30;99.90
18297;DHT22;18066;52.106;5.534;2024-02-28T19:01:12;9.40;99.90
18297;DHT22;18066;52.106;5.534;2024-02-28T19:03:50;9.00;99.90
18297;DHT22;18066;52.106;5.534;2024-02-28T19:06:35;9.00;99.90
18297;DHT22;18066;52.106;5.534;2024-02-28T19:09:09;9.20;99.90
18297;DHT22;18066;52.106;5.534;2024-02-28T19:18:11;9.10;99.90
18297;DHT22;18066;52.106;5.534;2024-02-28T20:44:19;8.20;99.90
18297;DHT22;18066;52.106;5.534;2024-02-28T20:47:02;8.00;99.90
18297;DHT22;18066;52.106;5.534;2024-02-28T20:49:36;7.80;99.90
18297;DHT22;18066;52.106;5.534;2024-02-28T20:52:06;8.10;99.90
18297;DHT22;18066;52.106;5.534;2024-02-28T20:58:10;8.00;99.90
18297;DHT22;18066;52.106;5.534;2024-02-28T21:04:10;8.10;99.90
18297;DHT22;18066;52.106;5.534;2024-02-28T21:07:15;7.90;99.90
18297;DHT22;18066;52.106;5.534;2024-02-28T21:12:59;7.90;99.90